sensor_id;sensor_type;location;lat;lon;timestamp;P1;durP1;ratioP1;P2;durP2;ratioP2
74660;SDS011;63191;39.566;2.654;2023-04-25T00:01:53;9.70;;;2.90;;
74660;SDS011;63191;39.566;2.654;2023-04-25T00:06:56;6.90;;;2.40;;
74660;SDS011;63191;39.566;2.654;2023-04-25T00:09:22;8.60;;;3.20;;
74660;SDS011;63191;39.566;2.654;2023-04-25T00:11:48;9.30;;;2.90;;
74660;SDS011;63191;39.566;2.654;2023-04-25T00:14:14;8.90;;;2.60;;
74660;SDS011;63191;39.566;2.654;2023-04-25T00:19:25;7.90;;;2.40;;
74660;SDS011;63191;39.566;2.654;2023-04-25T00:21:56;10.60;;;2.30;;
74660;SDS011;63191;39.566;2.654;2023-04-25T00:24:22;6.70;;;2.40;;
74660;SDS011;63191;39.566;2.654;2023-04-25T00:31:44;5.40;;;1.60;;
74660;SDS011;63191;39.566;2.654;2023-04-25T00:34:20;4.40;;;1.40;;
74660;SDS011;63191;39.566;2.654;2023-04-25T00:36:46;7.00;;;2.20;;
74660;SDS011;63191;39.566;2.654;2023-04-25T00:39:12;6.60;;;1.90;;
74660;SDS011;63191;39.566;2.654;2023-04-25T00:41:38;7.20;;;2.20;;
74660;SDS011;63191;39.566;2.654;2023-04-25T00:44:05;7.60;;;2.20;;
74660;SDS011;63191;39.566;2.654;2023-04-25T00:49:07;5.20;;;1.50;;
74660;SDS011;63191;39.566;2.654;2023-04-25T00:51:34;7.40;;;1.70;;
74660;SDS011;63191;39.566;2.654;2023-04-25T00:54:18;4.70;;;1.30;;
74660;SDS011;63191;39.566;2.654;2023-04-25T00:56:47;6.40;;;1.90;;
74660;SDS011;63191;39.566;2.654;2023-04-25T00:59:19;7.30;;;2.30;;
74660;SDS011;63191;39.566;2.654;2023-04-25T01:01:55;6.70;;;2.10;;
74660;SDS011;63191;39.566;2.654;2023-04-25T01:04:30;9.10;;;2.40;;
74660;SDS011;63191;39.566;2.654;2023-04-25T01:06:56;7.80;;;2.60;;
74660;SDS011;63191;39.566;2.654;2023-04-25T01:09:29;8.10;;;1.80;;
74660;SDS011;63191;39.566;2.654;2023-04-25T01:12:05;5.20;;;1.80;;
74660;SDS011;63191;39.566;2.654;2023-04-25T01:19:37;6.10;;;2.20;;
74660;SDS011;63191;39.566;2.654;2023-04-25T01:22:09;8.40;;;2.10;;
74660;SDS011;63191;39.566;2.654;2023-04-25T01:24:38;5.80;;;2.00;;
74660;SDS011;63191;39.566;2.654;2023-04-25T01:27:07;7.70;;;2.10;;
74660;SDS011;63191;39.566;2.654;2023-04-25T01:34:39;9.30;;;2.20;;
74660;SDS011;63191;39.566;2.654;2023-04-25T01:37:06;7.60;;;1.90;;
74660;SDS011;63191;39.566;2.654;2023-04-25T01:39:34;5.10;;;1.90;;
74660;SDS011;63191;39.566;2.654;2023-04-25T01:45:00;5.50;;;2.10;;
74660;SDS011;63191;39.566;2.654;2023-04-25T01:47:29;5.10;;;1.60;;
74660;SDS011;63191;39.566;2.654;2023-04-25T01:50:07;5.80;;;1.80;;
74660;SDS011;63191;39.566;2.654;2023-04-25T01:52:33;5.00;;;1.80;;
74660;SDS011;63191;39.566;2.654;2023-04-25T01:55:00;8.00;;;1.80;;
74660;SDS011;63191;39.566;2.654;2023-04-25T01:57:27;7.60;;;2.10;;
74660;SDS011;63191;39.566;2.654;2023-04-25T02:02:30;3.60;;;1.20;;
74660;SDS011;63191;39.566;2.654;2023-04-25T02:04:56;4.60;;;1.70;;
74660;SDS011;63191;39.566;2.654;2023-04-25T02:10:15;7.90;;;2.20;;
74660;SDS011;63191;39.566;2.654;2023-04-25T02:12:46;6.10;;;2.20;;
74660;SDS011;63191;39.566;2.654;2023-04-25T02:15:15;7.70;;;2.30;;
74660;SDS011;63191;39.566;2.654;2023-04-25T02:17:41;7.30;;;2.50;;
74660;SDS011;63191;39.566;2.654;2023-04-25T02:20:07;7.50;;;2.30;;
74660;SDS011;63191;39.566;2.654;2023-04-25T02:22:42;7.40;;;2.10;;
74660;SDS011;63191;39.566;2.654;2023-04-25T02:25:08;5.20;;;1.70;;
74660;SDS011;63191;39.566;2.654;2023-04-25T02:27:42;7.10;;;2.20;;
74660;SDS011;63191;39.566;2.654;2023-04-25T02:30:18;5.30;;;2.10;;
74660;SDS011;63191;39.566;2.654;2023-04-25T02:32:44;7.60;;;2.70;;
74660;SDS011;63191;39.566;2.654;2023-04-25T02:37:39;5.50;;;2.10;;
74660;SDS011;63191;39.566;2.654;2023-04-25T02:40:09;6.80;;;1.90;;
74660;SDS011;63191;39.566;2.654;2023-04-25T02:42:36;6.10;;;2.20;;
74660;SDS011;63191;39.566;2.654;2023-04-25T02:47:29;8.80;;;2.50;;
74660;SDS011;63191;39.566;2.654;2023-04-25T02:52:21;8.90;;;2.60;;
74660;SDS011;63191;39.566;2.654;2023-04-25T02:57:21;6.40;;;2.30;;
74660;SDS011;63191;39.566;2.654;2023-04-25T03:05:09;8.10;;;2.10;;
74660;SDS011;63191;39.566;2.654;2023-04-25T03:07:34;7.60;;;2.50;;
74660;SDS011;63191;39.566;2.654;2023-04-25T03:10:10;8.00;;;2.30;;
74660;SDS011;63191;39.566;2.654;2023-04-25T03:12:45;7.40;;;2.40;;
74660;SDS011;63191;39.566;2.654;2023-04-25T03:15:11;6.20;;;2.50;;
74660;SDS011;63191;39.566;2.654;2023-04-25T03:17:39;7.00;;;2.20;;
74660;SDS011;63191;39.566;2.654;2023-04-25T03:22:33;6.50;;;2.40;;
74660;SDS011;63191;39.566;2.654;2023-04-25T03:25:01;7.00;;;2.30;;
74660;SDS011;63191;39.566;2.654;2023-04-25T03:30:16;5.40;;;2.10;;
74660;SDS011;63191;39.566;2.654;2023-04-25T03:33:01;7.00;;;2.70;;
74660;SDS011;63191;39.566;2.654;2023-04-25T03:40:44;6.80;;;2.70;;
74660;SDS011;63191;39.566;2.654;2023-04-25T03:48:01;5.70;;;1.90;;
74660;SDS011;63191;39.566;2.654;2023-04-25T03:53:54;4.20;;;1.50;;
74660;SDS011;63191;39.566;2.654;2023-04-25T04:01:23;5.50;;;2.20;;
74660;SDS011;63191;39.566;2.654;2023-04-25T04:03:53;5.70;;;2.30;;
74660;SDS011;63191;39.566;2.654;2023-04-25T04:06:26;7.90;;;3.30;;
74660;SDS011;63191;39.566;2.654;2023-04-25T04:11:55;6.80;;;2.60;;
74660;SDS011;63191;39.566;2.654;2023-04-25T04:14:58;7.30;;;2.20;;
74660;SDS011;63191;39.566;2.654;2023-04-25T04:17:48;8.70;;;2.60;;
74660;SDS011;63191;39.566;2.654;2023-04-25T04:20:20;6.60;;;3.20;;
74660;SDS011;63191;39.566;2.654;2023-04-25T04:22:55;7.70;;;2.70;;
74660;SDS011;63191;39.566;2.654;2023-04-25T04:25:43;4.70;;;1.60;;
74660;SDS011;63191;39.566;2.654;2023-04-25T04:30:46;6.80;;;2.70;;
74660;SDS011;63191;39.566;2.654;2023-04-25T04:33:26;7.90;;;2.40;;
74660;SDS011;63191;39.566;2.654;2023-04-25T04:35:58;6.20;;;2.30;;
74660;SDS011;63191;39.566;2.654;2023-04-25T04:38:25;7.30;;;3.20;;
74660;SDS011;63191;39.566;2.654;2023-04-25T04:40:55;8.30;;;2.80;;
74660;SDS011;63191;39.566;2.654;2023-04-25T04:48:13;5.80;;;2.40;;
74660;SDS011;63191;39.566;2.654;2023-04-25T04:50:45;6.30;;;2.50;;
74660;SDS011;63191;39.566;2.654;2023-04-25T04:53:44;7.90;;;3.10;;
74660;SDS011;63191;39.566;2.654;2023-04-25T04:56:10;7.90;;;3.00;;
74660;SDS011;63191;39.566;2.654;2023-04-25T05:04:00;8.50;;;2.90;;
74660;SDS011;63191;39.566;2.654;2023-04-25T05:06:29;7.60;;;3.20;;
74660;SDS011;63191;39.566;2.654;2023-04-25T05:20:59;7.80;;;3.30;;
74660;SDS011;63191;39.566;2.654;2023-04-25T05:23:24;7.70;;;3.10;;
74660;SDS011;63191;39.566;2.654;2023-04-25T05:28:45;9.70;;;3.00;;
74660;SDS011;63191;39.566;2.654;2023-04-25T05:31:14;10.90;;;3.50;;
74660;SDS011;63191;39.566;2.654;2023-04-25T05:36:29;10.40;;;3.20;;
74660;SDS011;63191;39.566;2.654;2023-04-25T05:44:48;7.90;;;3.50;;
74660;SDS011;63191;39.566;2.654;2023-04-25T05:52:22;9.40;;;3.60;;
74660;SDS011;63191;39.566;2.654;2023-04-25T05:55:06;9.10;;;3.50;;
74660;SDS011;63191;39.566;2.654;2023-04-25T06:02:54;7.40;;;3.20;;
74660;SDS011;63191;39.566;2.654;2023-04-25T06:05:21;6.70;;;2.90;;
74660;SDS011;63191;39.566;2.654;2023-04-25T06:07:48;8.10;;;3.60;;
74660;SDS011;63191;39.566;2.654;2023-04-25T06:10:16;7.90;;;4.10;;
74660;SDS011;63191;39.566;2.654;2023-04-25T06:12:44;8.10;;;3.40;;
74660;SDS011;63191;39.566;2.654;2023-04-25T06:15:10;7.70;;;3.70;;
74660;SDS011;63191;39.566;2.654;2023-04-25T06:17:36;6.90;;;2.50;;
74660;SDS011;63191;39.566;2.654;2023-04-25T06:20:06;8.00;;;4.00;;
74660;SDS011;63191;39.566;2.654;2023-04-25T06:22:33;8.50;;;3.60;;
74660;SDS011;63191;39.566;2.654;2023-04-25T06:24:59;9.70;;;4.40;;
74660;SDS011;63191;39.566;2.654;2023-04-25T06:27:25;6.70;;;3.00;;
74660;SDS011;63191;39.566;2.654;2023-04-25T06:29:51;8.00;;;2.30;;
74660;SDS011;63191;39.566;2.654;2023-04-25T06:32:18;5.20;;;2.20;;
74660;SDS011;63191;39.566;2.654;2023-04-25T06:41:03;6.30;;;1.90;;
74660;SDS011;63191;39.566;2.654;2023-04-25T06:47:00;9.60;;;2.80;;
74660;SDS011;63191;39.566;2.654;2023-04-25T06:52:26;7.20;;;2.50;;
74660;SDS011;63191;39.566;2.654;2023-04-25T07:36:25;8.70;;;2.70;;
74660;SDS011;63191;39.566;2.654;2023-04-25T07:41:16;6.50;;;2.10;;
74660;SDS011;63191;39.566;2.654;2023-04-25T07:48:39;7.70;;;2.10;;
74660;SDS011;63191;39.566;2.654;2023-04-25T07:53:30;5.90;;;1.90;;
74660;SDS011;63191;39.566;2.654;2023-04-25T07:59:03;5.20;;;2.00;;
74660;SDS011;63191;39.566;2.654;2023-04-25T08:01:30;7.50;;;2.00;;
74660;SDS011;63191;39.566;2.654;2023-04-25T08:04:04;10.00;;;2.80;;
74660;SDS011;63191;39.566;2.654;2023-04-25T08:11:45;6.70;;;2.60;;
74660;SDS011;63191;39.566;2.654;2023-04-25T08:19:56;7.40;;;2.40;;
74660;SDS011;63191;39.566;2.654;2023-04-25T08:22:31;7.90;;;2.60;;
74660;SDS011;63191;39.566;2.654;2023-04-25T08:24:57;5.20;;;1.90;;
74660;SDS011;63191;39.566;2.654;2023-04-25T08:27:29;7.10;;;2.50;;
74660;SDS011;63191;39.566;2.654;2023-04-25T08:29:56;6.90;;;2.10;;
74660;SDS011;63191;39.566;2.654;2023-04-25T08:32:24;8.40;;;2.30;;
74660;SDS011;63191;39.566;2.654;2023-04-25T08:34:53;6.40;;;2.30;;
74660;SDS011;63191;39.566;2.654;2023-04-25T08:37:21;9.80;;;3.40;;
74660;SDS011;63191;39.566;2.654;2023-04-25T08:39:47;8.20;;;3.30;;
74660;SDS011;63191;39.566;2.654;2023-04-25T08:42:42;9.10;;;3.40;;
74660;SDS011;63191;39.566;2.654;2023-04-25T08:48:04;6.50;;;2.70;;
74660;SDS011;63191;39.566;2.654;2023-04-25T08:50:31;6.90;;;2.50;;
74660;SDS011;63191;39.566;2.654;2023-04-25T08:52:59;6.40;;;2.60;;
74660;SDS011;63191;39.566;2.654;2023-04-25T08:55:33;5.80;;;2.20;;
74660;SDS011;63191;39.566;2.654;2023-04-25T08:58:00;7.30;;;2.50;;
74660;SDS011;63191;39.566;2.654;2023-04-25T09:00:26;8.30;;;2.60;;
74660;SDS011;63191;39.566;2.654;2023-04-25T09:02:57;5.50;;;2.10;;
74660;SDS011;63191;39.566;2.654;2023-04-25T09:05:25;7.20;;;2.50;;
74660;SDS011;63191;39.566;2.654;2023-04-25T09:07:55;6.00;;;2.60;;
74660;SDS011;63191;39.566;2.654;2023-04-25T09:10:32;7.90;;;2.70;;
74660;SDS011;63191;39.566;2.654;2023-04-25T09:13:23;8.60;;;2.50;;
74660;SDS011;63191;39.566;2.654;2023-04-25T09:18:31;9.10;;;2.30;;
74660;SDS011;63191;39.566;2.654;2023-04-25T09:21:11;7.10;;;2.70;;
74660;SDS011;63191;39.566;2.654;2023-04-25T09:23:45;8.50;;;2.70;;
74660;SDS011;63191;39.566;2.654;2023-04-25T09:26:26;5.20;;;2.70;;
74660;SDS011;63191;39.566;2.654;2023-04-25T09:29:20;5.90;;;2.30;;
74660;SDS011;63191;39.566;2.654;2023-04-25T09:32:20;7.50;;;2.20;;
74660;SDS011;63191;39.566;2.654;2023-04-25T09:34:57;7.80;;;2.50;;
74660;SDS011;63191;39.566;2.654;2023-04-25T09:37:29;6.80;;;1.90;;
74660;SDS011;63191;39.566;2.654;2023-04-25T09:39:59;7.50;;;2.50;;
74660;SDS011;63191;39.566;2.654;2023-04-25T09:42:40;6.80;;;2.30;;
74660;SDS011;63191;39.566;2.654;2023-04-25T09:45:07;10.10;;;3.20;;
74660;SDS011;63191;39.566;2.654;2023-04-25T09:47:37;8.00;;;3.00;;
74660;SDS011;63191;39.566;2.654;2023-04-25T09:50:26;10.50;;;3.50;;
74660;SDS011;63191;39.566;2.654;2023-04-25T09:53:05;11.90;;;5.30;;
74660;SDS011;63191;39.566;2.654;2023-04-25T09:58:09;11.40;;;5.30;;
74660;SDS011;63191;39.566;2.654;2023-04-25T10:00:37;8.80;;;3.40;;
74660;SDS011;63191;39.566;2.654;2023-04-25T10:03:05;6.80;;;2.60;;
74660;SDS011;63191;39.566;2.654;2023-04-25T10:05:32;8.40;;;2.80;;
74660;SDS011;63191;39.566;2.654;2023-04-25T10:08:06;6.60;;;2.40;;
74660;SDS011;63191;39.566;2.654;2023-04-25T10:10:46;6.40;;;2.20;;
74660;SDS011;63191;39.566;2.654;2023-04-25T10:13:13;7.60;;;2.70;;
74660;SDS011;63191;39.566;2.654;2023-04-25T10:15:49;7.40;;;2.40;;
74660;SDS011;63191;39.566;2.654;2023-04-25T10:20:50;9.20;;;2.80;;
74660;SDS011;63191;39.566;2.654;2023-04-25T10:23:16;11.80;;;2.70;;
74660;SDS011;63191;39.566;2.654;2023-04-25T10:25:46;10.30;;;2.40;;
74660;SDS011;63191;39.566;2.654;2023-04-25T10:28:20;7.20;;;2.50;;
74660;SDS011;63191;39.566;2.654;2023-04-25T10:31:23;8.00;;;2.60;;
74660;SDS011;63191;39.566;2.654;2023-04-25T10:33:59;8.20;;;2.70;;
74660;SDS011;63191;39.566;2.654;2023-04-25T10:36:31;8.00;;;1.90;;
74660;SDS011;63191;39.566;2.654;2023-04-25T10:39:09;7.20;;;2.40;;
74660;SDS011;63191;39.566;2.654;2023-04-25T10:42:41;10.20;;;2.70;;
74660;SDS011;63191;39.566;2.654;2023-04-25T10:45:08;10.80;;;3.30;;
74660;SDS011;63191;39.566;2.654;2023-04-25T10:47:43;7.60;;;2.70;;
74660;SDS011;63191;39.566;2.654;2023-04-25T10:52:40;7.60;;;2.50;;
74660;SDS011;63191;39.566;2.654;2023-04-25T10:55:12;6.50;;;2.40;;
74660;SDS011;63191;39.566;2.654;2023-04-25T11:00:24;11.50;;;3.60;;
74660;SDS011;63191;39.566;2.654;2023-04-25T11:02:57;8.90;;;2.70;;
74660;SDS011;63191;39.566;2.654;2023-04-25T11:05:35;7.90;;;2.50;;
74660;SDS011;63191;39.566;2.654;2023-04-25T11:08:12;8.30;;;2.70;;
74660;SDS011;63191;39.566;2.654;2023-04-25T11:10:41;9.10;;;2.80;;
74660;SDS011;63191;39.566;2.654;2023-04-25T11:13:07;6.00;;;2.40;;
74660;SDS011;63191;39.566;2.654;2023-04-25T11:15:33;7.50;;;2.50;;
74660;SDS011;63191;39.566;2.654;2023-04-25T11:18:03;7.10;;;2.50;;
74660;SDS011;63191;39.566;2.654;2023-04-25T11:20:35;4.80;;;1.90;;
74660;SDS011;63191;39.566;2.654;2023-04-25T11:23:01;9.60;;;2.80;;
74660;SDS011;63191;39.566;2.654;2023-04-25T11:25:29;8.30;;;2.90;;
74660;SDS011;63191;39.566;2.654;2023-04-25T11:27:57;9.10;;;2.90;;
74660;SDS011;63191;39.566;2.654;2023-04-25T11:30:28;8.20;;;3.00;;
74660;SDS011;63191;39.566;2.654;2023-04-25T11:32:56;7.80;;;2.40;;
74660;SDS011;63191;39.566;2.654;2023-04-25T11:37:48;7.00;;;2.70;;
74660;SDS011;63191;39.566;2.654;2023-04-25T11:40:15;12.20;;;5.90;;
74660;SDS011;63191;39.566;2.654;2023-04-25T11:42:47;8.60;;;2.80;;
74660;SDS011;63191;39.566;2.654;2023-04-25T11:45:14;6.90;;;3.40;;
74660;SDS011;63191;39.566;2.654;2023-04-25T11:47:40;11.40;;;3.10;;
74660;SDS011;63191;39.566;2.654;2023-04-25T11:50:21;7.00;;;3.10;;
74660;SDS011;63191;39.566;2.654;2023-04-25T11:55:24;11.30;;;2.70;;
74660;SDS011;63191;39.566;2.654;2023-04-25T11:57:53;8.20;;;3.30;;
74660;SDS011;63191;39.566;2.654;2023-04-25T12:02:54;8.70;;;2.90;;
74660;SDS011;63191;39.566;2.654;2023-04-25T12:05:32;8.50;;;2.90;;
74660;SDS011;63191;39.566;2.654;2023-04-25T12:08:18;6.30;;;2.50;;
74660;SDS011;63191;39.566;2.654;2023-04-25T12:10:46;7.40;;;2.70;;
74660;SDS011;63191;39.566;2.654;2023-04-25T12:22:28;8.00;;;3.20;;
74660;SDS011;63191;39.566;2.654;2023-04-25T12:25:00;7.40;;;2.90;;
74660;SDS011;63191;39.566;2.654;2023-04-25T12:30:03;11.00;;;3.40;;
74660;SDS011;63191;39.566;2.654;2023-04-25T12:37:28;11.70;;;3.20;;
74660;SDS011;63191;39.566;2.654;2023-04-25T12:40:06;10.80;;;3.80;;
74660;SDS011;63191;39.566;2.654;2023-04-25T12:43:02;8.50;;;3.00;;
74660;SDS011;63191;39.566;2.654;2023-04-25T12:51:23;9.00;;;2.70;;
74660;SDS011;63191;39.566;2.654;2023-04-25T12:54:22;8.10;;;3.10;;
74660;SDS011;63191;39.566;2.654;2023-04-25T12:57:14;9.00;;;3.30;;
74660;SDS011;63191;39.566;2.654;2023-04-25T12:59:53;9.00;;;3.10;;
74660;SDS011;63191;39.566;2.654;2023-04-25T13:04:57;9.80;;;3.50;;
74660;SDS011;63191;39.566;2.654;2023-04-25T13:09:47;9.70;;;3.20;;
74660;SDS011;63191;39.566;2.654;2023-04-25T13:12:22;13.20;;;3.70;;
74660;SDS011;63191;39.566;2.654;2023-04-25T13:15:00;12.40;;;3.40;;
74660;SDS011;63191;39.566;2.654;2023-04-25T13:32:48;11.60;;;3.60;;
74660;SDS011;63191;39.566;2.654;2023-04-25T13:38:25;8.80;;;3.60;;
74660;SDS011;63191;39.566;2.654;2023-04-25T13:46:50;7.90;;;3.20;;
74660;SDS011;63191;39.566;2.654;2023-04-25T14:28:52;9.40;;;2.30;;
74660;SDS011;63191;39.566;2.654;2023-04-25T15:34:43;6.60;;;2.60;;
74660;SDS011;63191;39.566;2.654;2023-04-25T15:57:34;8.60;;;2.50;;
74660;SDS011;63191;39.566;2.654;2023-04-25T16:03:35;6.70;;;2.00;;
74660;SDS011;63191;39.566;2.654;2023-04-25T16:06:38;7.00;;;2.00;;
74660;SDS011;63191;39.566;2.654;2023-04-25T16:09:12;6.70;;;2.10;;
74660;SDS011;63191;39.566;2.654;2023-04-25T16:21:07;7.30;;;2.30;;
74660;SDS011;63191;39.566;2.654;2023-04-25T16:23:33;7.60;;;2.30;;
74660;SDS011;63191;39.566;2.654;2023-04-25T16:26:03;7.40;;;2.00;;
74660;SDS011;63191;39.566;2.654;2023-04-25T16:28:30;6.90;;;1.90;;
74660;SDS011;63191;39.566;2.654;2023-04-25T16:30:56;5.40;;;1.90;;
74660;SDS011;63191;39.566;2.654;2023-04-25T16:33:22;6.70;;;1.90;;
74660;SDS011;63191;39.566;2.654;2023-04-25T16:35:53;5.70;;;1.90;;
74660;SDS011;63191;39.566;2.654;2023-04-25T16:38:19;6.80;;;1.80;;
74660;SDS011;63191;39.566;2.654;2023-04-25T16:40:45;7.10;;;2.00;;
74660;SDS011;63191;39.566;2.654;2023-04-25T16:43:12;8.80;;;2.50;;
74660;SDS011;63191;39.566;2.654;2023-04-25T16:45:38;6.90;;;1.90;;
74660;SDS011;63191;39.566;2.654;2023-04-25T16:48:05;6.70;;;2.00;;
74660;SDS011;63191;39.566;2.654;2023-04-25T16:50:31;7.90;;;2.70;;
74660;SDS011;63191;39.566;2.654;2023-04-25T16:52:58;7.60;;;2.30;;
74660;SDS011;63191;39.566;2.654;2023-04-25T16:55:24;8.30;;;2.20;;
74660;SDS011;63191;39.566;2.654;2023-04-25T16:57:50;5.70;;;1.80;;
74660;SDS011;63191;39.566;2.654;2023-04-25T17:00:16;6.60;;;2.20;;
74660;SDS011;63191;39.566;2.654;2023-04-25T17:02:42;7.40;;;2.10;;
74660;SDS011;63191;39.566;2.654;2023-04-25T17:05:29;6.30;;;2.30;;
74660;SDS011;63191;39.566;2.654;2023-04-25T17:07:59;5.90;;;2.30;;
74660;SDS011;63191;39.566;2.654;2023-04-25T17:12:53;8.40;;;2.30;;
74660;SDS011;63191;39.566;2.654;2023-04-25T17:20:26;8.20;;;2.10;;
74660;SDS011;63191;39.566;2.654;2023-04-25T17:23:12;7.50;;;2.10;;
74660;SDS011;63191;39.566;2.654;2023-04-25T17:32:17;7.90;;;2.70;;
74660;SDS011;63191;39.566;2.654;2023-04-25T17:34:51;6.90;;;1.60;;
74660;SDS011;63191;39.566;2.654;2023-04-25T17:37:17;8.50;;;2.50;;
74660;SDS011;63191;39.566;2.654;2023-04-25T17:39:43;7.80;;;3.00;;
74660;SDS011;63191;39.566;2.654;2023-04-25T17:42:13;6.40;;;2.40;;
74660;SDS011;63191;39.566;2.654;2023-04-25T17:44:40;8.30;;;2.30;;
74660;SDS011;63191;39.566;2.654;2023-04-25T17:47:07;9.60;;;2.50;;
74660;SDS011;63191;39.566;2.654;2023-04-25T17:49:34;8.50;;;2.40;;
74660;SDS011;63191;39.566;2.654;2023-04-25T17:52:00;8.40;;;2.90;;
74660;SDS011;63191;39.566;2.654;2023-04-25T17:54:27;9.20;;;2.60;;
74660;SDS011;63191;39.566;2.654;2023-04-25T17:56:53;10.40;;;3.00;;
74660;SDS011;63191;39.566;2.654;2023-04-25T17:59:20;8.20;;;2.90;;
74660;SDS011;63191;39.566;2.654;2023-04-25T18:01:47;8.80;;;2.70;;
74660;SDS011;63191;39.566;2.654;2023-04-25T18:04:13;7.60;;;2.50;;
74660;SDS011;63191;39.566;2.654;2023-04-25T18:06:48;9.40;;;3.10;;
74660;SDS011;63191;39.566;2.654;2023-04-25T18:09:20;10.00;;;3.50;;
74660;SDS011;63191;39.566;2.654;2023-04-25T18:11:51;10.70;;;2.90;;
74660;SDS011;63191;39.566;2.654;2023-04-25T18:14:21;12.20;;;3.40;;
74660;SDS011;63191;39.566;2.654;2023-04-25T18:16:51;10.40;;;3.60;;
74660;SDS011;63191;39.566;2.654;2023-04-25T18:19:34;9.00;;;3.60;;
74660;SDS011;63191;39.566;2.654;2023-04-25T18:33:02;8.70;;;3.50;;
74660;SDS011;63191;39.566;2.654;2023-04-25T18:38:03;8.30;;;3.30;;
74660;SDS011;63191;39.566;2.654;2023-04-25T18:49:49;8.80;;;2.80;;
74660;SDS011;63191;39.566;2.654;2023-04-25T18:52:15;8.00;;;2.80;;
74660;SDS011;63191;39.566;2.654;2023-04-25T19:22:58;10.50;;;3.60;;
74660;SDS011;63191;39.566;2.654;2023-04-25T19:31:32;10.30;;;3.70;;
74660;SDS011;63191;39.566;2.654;2023-04-25T19:34:09;10.20;;;4.70;;
74660;SDS011;63191;39.566;2.654;2023-04-25T19:39:06;12.10;;;5.10;;
74660;SDS011;63191;39.566;2.654;2023-04-25T19:44:27;12.70;;;5.50;;
74660;SDS011;63191;39.566;2.654;2023-04-25T19:46:53;12.10;;;4.90;;
74660;SDS011;63191;39.566;2.654;2023-04-25T19:55:04;11.70;;;4.90;;
74660;SDS011;63191;39.566;2.654;2023-04-25T20:03:04;10.70;;;5.10;;
74660;SDS011;63191;39.566;2.654;2023-04-25T20:08:38;15.90;;;5.20;;
74660;SDS011;63191;39.566;2.654;2023-04-25T20:11:08;13.10;;;5.30;;
74660;SDS011;63191;39.566;2.654;2023-04-25T20:13:41;13.40;;;5.10;;
74660;SDS011;63191;39.566;2.654;2023-04-25T20:18:32;15.20;;;5.00;;
74660;SDS011;63191;39.566;2.654;2023-04-25T20:21:02;10.50;;;4.70;;
74660;SDS011;63191;39.566;2.654;2023-04-25T20:23:48;10.80;;;4.90;;
74660;SDS011;63191;39.566;2.654;2023-04-25T20:26:15;13.60;;;5.40;;
74660;SDS011;63191;39.566;2.654;2023-04-25T20:29:00;12.80;;;5.60;;
74660;SDS011;63191;39.566;2.654;2023-04-25T20:32:10;11.50;;;5.60;;
74660;SDS011;63191;39.566;2.654;2023-04-25T20:34:51;10.10;;;5.40;;
74660;SDS011;63191;39.566;2.654;2023-04-25T20:46:20;10.00;;;3.00;;
74660;SDS011;63191;39.566;2.654;2023-04-25T21:00:38;9.10;;;3.70;;
74660;SDS011;63191;39.566;2.654;2023-04-25T21:24:26;11.20;;;5.40;;
74660;SDS011;63191;39.566;2.654;2023-04-25T21:27:05;11.40;;;4.50;;
74660;SDS011;63191;39.566;2.654;2023-04-25T21:29:37;11.30;;;5.10;;
74660;SDS011;63191;39.566;2.654;2023-04-25T21:38:25;12.10;;;6.30;;
74660;SDS011;63191;39.566;2.654;2023-04-25T21:43:47;12.60;;;6.40;;
74660;SDS011;63191;39.566;2.654;2023-04-25T21:52:50;16.60;;;6.40;;
74660;SDS011;63191;39.566;2.654;2023-04-25T22:04:37;9.50;;;4.90;;
74660;SDS011;63191;39.566;2.654;2023-04-25T22:09:28;13.40;;;5.20;;
74660;SDS011;63191;39.566;2.654;2023-04-25T22:12:18;13.00;;;5.20;;
74660;SDS011;63191;39.566;2.654;2023-04-25T22:17:50;14.00;;;5.00;;
74660;SDS011;63191;39.566;2.654;2023-04-25T22:20:20;12.50;;;5.60;;
74660;SDS011;63191;39.566;2.654;2023-04-25T22:22:56;11.80;;;5.30;;
74660;SDS011;63191;39.566;2.654;2023-04-25T22:25:26;13.20;;;5.50;;
74660;SDS011;63191;39.566;2.654;2023-04-25T22:30:27;12.50;;;4.80;;
74660;SDS011;63191;39.566;2.654;2023-04-25T22:36:41;12.50;;;6.10;;
74660;SDS011;63191;39.566;2.654;2023-04-25T22:42:48;11.90;;;5.70;;
74660;SDS011;63191;39.566;2.654;2023-04-25T22:45:17;12.30;;;4.90;;
74660;SDS011;63191;39.566;2.654;2023-04-25T22:48:06;9.90;;;4.80;;
74660;SDS011;63191;39.566;2.654;2023-04-25T22:56:53;11.20;;;4.20;;
74660;SDS011;63191;39.566;2.654;2023-04-25T22:59:29;9.30;;;4.20;;
74660;SDS011;63191;39.566;2.654;2023-04-25T23:02:00;9.70;;;3.70;;
74660;SDS011;63191;39.566;2.654;2023-04-25T23:10:17;9.80;;;3.30;;
